sensor_id;sensor_type;location;lat;lon;timestamp;pressure;altitude;pressure_sealevel;temperature;humidity
25869;BME280;13688;53.154;18.136;2023-04-04T00:03:04;102196.50;;;-1.61;63.60
25869;BME280;13688;53.154;18.136;2023-04-04T00:08:26;102192.12;;;-1.62;63.72
25869;BME280;13688;53.154;18.136;2023-04-04T00:13:49;102185.09;;;-1.63;63.86
25869;BME280;13688;53.154;18.136;2023-04-04T00:19:12;102178.92;;;-1.60;63.97
25869;BME280;13688;53.154;18.136;2023-04-04T00:24:34;102176.27;;;-1.54;63.79
25869;BME280;13688;53.154;18.136;2023-04-04T00:29:57;102165.66;;;-1.43;63.49
25869;BME280;13688;53.154;18.136;2023-04-04T00:35:21;102162.11;;;-1.39;63.11
25869;BME280;13688;53.154;18.136;2023-04-04T00:40:48;102154.12;;;-1.29;62.68
25869;BME280;13688;53.154;18.136;2023-04-04T00:46:12;102147.02;;;-1.18;62.14
25869;BME280;13688;53.154;18.136;2023-04-04T00:51:35;102147.84;;;-1.09;61.59
25869;BME280;13688;53.154;18.136;2023-04-04T00:56:58;102147.83;;;-1.05;61.20
25869;BME280;13688;53.154;18.136;2023-04-04T01:02:23;102145.16;;;-1.02;60.83
25869;BME280;13688;53.154;18.136;2023-04-04T01:07:45;102146.89;;;-0.99;60.40
25869;BME280;13688;53.154;18.136;2023-04-04T01:13:08;102143.30;;;-0.86;59.89
25869;BME280;13688;53.154;18.136;2023-04-04T01:18:31;102131.86;;;-0.87;59.50
25869;BME280;13688;53.154;18.136;2023-04-04T01:23:58;102125.72;;;-0.92;59.05
25869;BME280;13688;53.154;18.136;2023-04-04T01:29:21;102123.94;;;-0.87;58.54
25869;BME280;13688;53.154;18.136;2023-04-04T01:40:34;102123.88;;;-0.82;57.40
25869;BME280;13688;53.154;18.136;2023-04-04T01:46:00;102113.23;;;-0.71;56.22
25869;BME280;13688;53.154;18.136;2023-04-04T01:51:23;102106.23;;;-0.75;55.61
25869;BME280;13688;53.154;18.136;2023-04-04T01:56:47;102100.95;;;-0.75;55.48
25869;BME280;13688;53.154;18.136;2023-04-04T02:02:10;102097.44;;;-0.79;55.51
25869;BME280;13688;53.154;18.136;2023-04-04T02:07:33;102093.94;;;-0.81;55.76
25869;BME280;13688;53.154;18.136;2023-04-04T02:12:57;102085.11;;;-0.78;56.13
25869;BME280;13688;53.154;18.136;2023-04-04T02:18:20;102081.59;;;-0.79;56.44
25869;BME280;13688;53.154;18.136;2023-04-04T02:23:43;102085.13;;;-0.80;56.64
25869;BME280;13688;53.154;18.136;2023-04-04T02:29:05;102078.95;;;-0.79;56.75
25869;BME280;13688;53.154;18.136;2023-04-04T02:34:28;102078.06;;;-0.78;56.68
25869;BME280;13688;53.154;18.136;2023-04-04T02:39:51;102070.16;;;-0.79;56.73
25869;BME280;13688;53.154;18.136;2023-04-04T02:45:14;102070.16;;;-0.79;56.90
25869;BME280;13688;53.154;18.136;2023-04-04T02:50:37;102069.27;;;-0.78;56.85
25869;BME280;13688;53.154;18.136;2023-04-04T02:56:01;102071.02;;;-0.77;56.63
25869;BME280;13688;53.154;18.136;2023-04-04T03:01:24;102065.73;;;-0.77;56.08
25869;BME280;13688;53.154;18.136;2023-04-04T03:06:46;102057.82;;;-0.76;55.26
25869;BME280;13688;53.154;18.136;2023-04-04T03:12:09;102048.07;;;-0.71;53.73
25869;BME280;13688;53.154;18.136;2023-04-04T03:17:34;102056.87;;;-0.70;53.09
25869;BME280;13688;53.154;18.136;2023-04-04T03:22:56;102059.53;;;-0.72;52.75
25869;BME280;13688;53.154;18.136;2023-04-04T03:28:19;102057.82;;;-0.76;52.56
25869;BME280;13688;53.154;18.136;2023-04-04T03:33:41;102047.28;;;-0.80;52.46
25869;BME280;13688;53.154;18.136;2023-04-04T03:39:04;102049.09;;;-0.84;52.59
25869;BME280;13688;53.154;18.136;2023-04-04T03:44:26;102047.37;;;-0.87;52.46
25869;BME280;13688;53.154;18.136;2023-04-04T03:49:49;102048.25;;;-0.89;52.44
25869;BME280;13688;53.154;18.136;2023-04-04T03:55:12;102047.42;;;-0.94;52.65
25869;BME280;13688;53.154;18.136;2023-04-04T04:00:35;102043.06;;;-1.00;52.66
25869;BME280;13688;53.154;18.136;2023-04-04T04:05:57;102048.38;;;-1.03;52.92
25869;BME280;13688;53.154;18.136;2023-04-04T04:11:21;102053.63;;;-1.00;52.91
25869;BME280;13688;53.154;18.136;2023-04-04T04:16:46;102057.12;;;-0.98;52.88
25869;BME280;13688;53.154;18.136;2023-04-04T04:22:09;102052.71;;;-0.97;53.04
25869;BME280;13688;53.154;18.136;2023-04-04T04:27:31;102047.42;;;-0.94;53.08
25869;BME280;13688;53.154;18.136;2023-04-04T04:32:55;102043.86;;;-0.90;53.56
25869;BME280;13688;53.154;18.136;2023-04-04T04:38:17;102046.47;;;-0.85;54.66
25869;BME280;13688;53.154;18.136;2023-04-04T04:43:39;102038.61;;;-0.93;54.42
25869;BME280;13688;53.154;18.136;2023-04-04T04:49:02;102035.16;;;-1.01;54.54
25869;BME280;13688;53.154;18.136;2023-04-04T04:54:24;102030.76;;;-1.01;54.35
25869;BME280;13688;53.154;18.136;2023-04-04T04:59:47;102037.74;;;-0.94;53.78
25869;BME280;13688;53.154;18.136;2023-04-04T05:05:10;102033.30;;;-0.90;53.65
25869;BME280;13688;53.154;18.136;2023-04-04T05:10:32;102038.54;;;-0.87;53.95
25869;BME280;13688;53.154;18.136;2023-04-04T05:15:54;102029.73;;;-0.84;53.97
25869;BME280;13688;53.154;18.136;2023-04-04T05:21:17;102027.92;;;-0.81;53.99
25869;BME280;13688;53.154;18.136;2023-04-04T05:26:39;102028.75;;;-0.74;53.58
25869;BME280;13688;53.154;18.136;2023-04-04T05:32:02;102026.87;;;-0.63;53.40
25869;BME280;13688;53.154;18.136;2023-04-04T05:37:24;102026.81;;;-0.57;53.50
25869;BME280;13688;53.154;18.136;2023-04-04T05:42:53;102034.70;;;-0.54;53.62
25869;BME280;13688;53.154;18.136;2023-04-04T05:48:16;102035.55;;;-0.52;53.78
25869;BME280;13688;53.154;18.136;2023-04-04T05:53:39;102040.81;;;-0.50;54.19
25869;BME280;13688;53.154;18.136;2023-04-04T05:59:02;102045.24;;;-0.52;54.64
25869;BME280;13688;53.154;18.136;2023-04-04T06:04:25;102054.91;;;-0.51;55.34
25869;BME280;13688;53.154;18.136;2023-04-04T06:09:49;102046.25;;;-0.64;57.08
25869;BME280;13688;53.154;18.136;2023-04-04T06:15:12;102048.14;;;-0.78;58.87
25869;BME280;13688;53.154;18.136;2023-04-04T06:20:35;102041.08;;;-0.75;60.39
25869;BME280;13688;53.154;18.136;2023-04-04T06:25:58;102041.00;;;-0.69;60.83
25869;BME280;13688;53.154;18.136;2023-04-04T06:31:22;102032.19;;;-0.68;61.31
25869;BME280;13688;53.154;18.136;2023-04-04T06:36:44;102038.21;;;-0.53;61.80
25869;BME280;13688;53.154;18.136;2023-04-04T06:42:06;102047.80;;;-0.45;61.77
25869;BME280;13688;53.154;18.136;2023-04-04T06:47:29;102036.39;;;-0.47;61.02
25869;BME280;13688;53.154;18.136;2023-04-04T06:52:51;102042.35;;;-0.31;59.70
25869;BME280;13688;53.154;18.136;2023-04-04T06:58:15;102030.73;;;-0.16;58.70
25869;BME280;13688;53.154;18.136;2023-04-04T07:03:37;102018.10;;;0.06;57.63
25869;BME280;13688;53.154;18.136;2023-04-04T07:09:00;102013.89;;;-0.08;56.69
25869;BME280;13688;53.154;18.136;2023-04-04T07:14:24;102019.82;;;0.08;56.12
25869;BME280;13688;53.154;18.136;2023-04-04T07:19:47;102025.26;;;-0.03;55.82
25869;BME280;13688;53.154;18.136;2023-04-04T07:25:12;102021.39;;;0.23;55.06
25869;BME280;13688;53.154;18.136;2023-04-04T07:30:36;102025.44;;;0.47;53.72
25869;BME280;13688;53.154;18.136;2023-04-04T07:36:01;102025.85;;;0.78;53.43
25869;BME280;13688;53.154;18.136;2023-04-04T07:41:24;102035.95;;;1.05;52.37
25869;BME280;13688;53.154;18.136;2023-04-04T07:46:46;102025.82;;;0.79;50.92
25869;BME280;13688;53.154;18.136;2023-04-04T07:52:10;102019.41;;;0.93;50.63
25869;BME280;13688;53.154;18.136;2023-04-04T07:57:36;102009.37;;;1.11;50.60
25869;BME280;13688;53.154;18.136;2023-04-04T08:03:01;102017.84;;;0.81;50.21
25869;BME280;13688;53.154;18.136;2023-04-04T08:08:24;102009.63;;;0.96;50.21
25869;BME280;13688;53.154;18.136;2023-04-04T08:13:46;102009.47;;;1.07;50.11
25869;BME280;13688;53.154;18.136;2023-04-04T08:19:09;102003.23;;;0.59;49.20
25869;BME280;13688;53.154;18.136;2023-04-04T08:24:32;101996.09;;;1.13;50.25
25869;BME280;13688;53.154;18.136;2023-04-04T08:29:55;101992.33;;;1.25;49.31
25869;BME280;13688;53.154;18.136;2023-04-04T08:35:18;101992.45;;;1.65;49.30
25869;BME280;13688;53.154;18.136;2023-04-04T08:40:42;101993.41;;;1.16;48.73
25869;BME280;13688;53.154;18.136;2023-04-04T08:46:06;101984.52;;;1.19;49.79
25869;BME280;13688;53.154;18.136;2023-04-04T08:51:30;101981.14;;;1.10;49.78
25869;BME280;13688;53.154;18.136;2023-04-04T08:56:54;101977.15;;;1.78;49.65
25869;BME280;13688;53.154;18.136;2023-04-04T09:02:21;101964.09;;;2.46;48.77
25869;BME280;13688;53.154;18.136;2023-04-04T09:07:47;101942.22;;;2.72;46.54
25869;BME280;13688;53.154;18.136;2023-04-04T09:13:12;101950.82;;;2.46;45.62
25869;BME280;13688;53.154;18.136;2023-04-04T09:18:35;101946.13;;;2.20;46.45
25869;BME280;13688;53.154;18.136;2023-04-04T09:24:07;101946.32;;;1.72;47.37
25869;BME280;13688;53.154;18.136;2023-04-04T09:29:31;101942.08;;;1.65;47.88
25869;BME280;13688;53.154;18.136;2023-04-04T09:34:55;101947.82;;;1.85;47.69
25869;BME280;13688;53.154;18.136;2023-04-04T09:40:21;101933.89;;;2.14;47.00
25869;BME280;13688;53.154;18.136;2023-04-04T09:45:46;101940.08;;;2.15;46.54
25869;BME280;13688;53.154;18.136;2023-04-04T09:51:11;101945.20;;;2.22;46.64
25869;BME280;13688;53.154;18.136;2023-04-04T09:56:34;101949.50;;;2.64;46.86
25869;BME280;13688;53.154;18.136;2023-04-04T10:02:00;101947.61;;;2.32;45.35
25869;BME280;13688;53.154;18.136;2023-04-04T10:07:26;101946.95;;;2.23;46.09
25869;BME280;13688;53.154;18.136;2023-04-04T10:12:51;101943.64;;;2.14;46.30
25869;BME280;13688;53.154;18.136;2023-04-04T10:18:13;101955.89;;;1.79;46.82
25869;BME280;13688;53.154;18.136;2023-04-04T10:23:37;101950.47;;;1.85;47.76
25869;BME280;13688;53.154;18.136;2023-04-04T10:29:01;101938.33;;;2.14;47.96
25869;BME280;13688;53.154;18.136;2023-04-04T10:34:30;101934.89;;;2.46;47.81
25869;BME280;13688;53.154;18.136;2023-04-04T10:40:08;101941.03;;;2.11;47.48
25869;BME280;13688;53.154;18.136;2023-04-04T10:45:32;101938.46;;;2.08;48.77
25869;BME280;13688;53.154;18.136;2023-04-04T10:50:55;101937.38;;;1.78;51.76
25869;BME280;13688;53.154;18.136;2023-04-04T10:56:19;101942.60;;;1.81;53.46
25869;BME280;13688;53.154;18.136;2023-04-04T11:01:57;101937.80;;;1.98;53.30
25869;BME280;13688;53.154;18.136;2023-04-04T11:07:26;101921.51;;;2.84;53.93
25869;BME280;13688;53.154;18.136;2023-04-04T11:12:53;101910.36;;;5.72;49.68
25869;BME280;13688;53.154;18.136;2023-04-04T11:18:21;101901.06;;;6.90;42.55
25869;BME280;13688;53.154;18.136;2023-04-04T11:29:48;101900.87;;;2.62;44.74
25869;BME280;13688;53.154;18.136;2023-04-04T11:35:12;101883.94;;;3.88;47.57
25869;BME280;13688;53.154;18.136;2023-04-04T11:40:53;101877.41;;;5.26;45.20
25869;BME280;13688;53.154;18.136;2023-04-04T11:46:18;101872.14;;;4.50;44.58
25869;BME280;13688;53.154;18.136;2023-04-04T11:51:44;101873.50;;;3.53;45.46
25869;BME280;13688;53.154;18.136;2023-04-04T11:57:10;101870.99;;;2.86;47.01
25869;BME280;13688;53.154;18.136;2023-04-04T12:02:32;101871.80;;;2.90;48.55
25869;BME280;13688;53.154;18.136;2023-04-04T12:07:56;101858.52;;;2.90;49.31
25869;BME280;13688;53.154;18.136;2023-04-04T12:13:19;101868.33;;;3.19;48.96
25869;BME280;13688;53.154;18.136;2023-04-04T12:18:44;101867.48;;;3.46;47.86
25869;BME280;13688;53.154;18.136;2023-04-04T12:24:07;101857.86;;;3.99;47.00
25869;BME280;13688;53.154;18.136;2023-04-04T12:29:31;101854.72;;;3.59;46.10
25869;BME280;13688;53.154;18.136;2023-04-04T12:34:59;101844.45;;;3.74;46.34
25869;BME280;13688;53.154;18.136;2023-04-04T12:40:30;101828.66;;;5.68;42.85
25869;BME280;13688;53.154;18.136;2023-04-04T12:45:58;101808.56;;;7.25;37.98
25869;BME280;13688;53.154;18.136;2023-04-04T12:51:29;101797.00;;;7.25;37.82
25869;BME280;13688;53.154;18.136;2023-04-04T12:56:47;101787.16;;;5.15;37.84
25869;BME280;13688;53.154;18.136;2023-04-04T13:02:18;101786.88;;;4.00;39.18
25869;BME280;13688;53.154;18.136;2023-04-04T13:07:40;101778.44;;;3.87;41.19
25869;BME280;13688;53.154;18.136;2023-04-04T13:13:06;101782.02;;;3.86;43.33
25869;BME280;13688;53.154;18.136;2023-04-04T13:18:32;101775.67;;;3.90;43.48
25869;BME280;13688;53.154;18.136;2023-04-04T13:23:57;101772.61;;;5.01;42.78
25869;BME280;13688;53.154;18.136;2023-04-04T13:29:20;101760.84;;;6.38;40.19
25869;BME280;13688;53.154;18.136;2023-04-04T13:34:42;101756.10;;;5.14;38.46
25869;BME280;13688;53.154;18.136;2023-04-04T13:40:05;101752.22;;;4.76;41.08
25869;BME280;13688;53.154;18.136;2023-04-04T13:45:31;101741.68;;;6.28;40.07
25869;BME280;13688;53.154;18.136;2023-04-04T13:50:54;101744.36;;;7.25;37.64
25869;BME280;13688;53.154;18.136;2023-04-04T13:56:17;101725.45;;;7.83;35.22
25869;BME280;13688;53.154;18.136;2023-04-04T14:01:40;101732.78;;;5.85;34.92
25869;BME280;13688;53.154;18.136;2023-04-04T14:07:03;101721.77;;;4.83;36.98
25869;BME280;13688;53.154;18.136;2023-04-04T14:12:26;101721.58;;;4.88;38.19
25869;BME280;13688;53.154;18.136;2023-04-04T14:17:49;101702.22;;;4.36;38.91
25869;BME280;13688;53.154;18.136;2023-04-04T14:23:12;101721.78;;;4.35;40.16
25869;BME280;13688;53.154;18.136;2023-04-04T14:28:35;101725.73;;;3.98;40.82
25869;BME280;13688;53.154;18.136;2023-04-04T14:33:57;101710.53;;;4.27;41.79
25869;BME280;13688;53.154;18.136;2023-04-04T14:39:27;101707.67;;;6.31;40.02
25869;BME280;13688;53.154;18.136;2023-04-04T14:44:53;101705.48;;;6.00;36.80
25869;BME280;13688;53.154;18.136;2023-04-04T14:50:16;101695.80;;;4.88;38.45
25869;BME280;13688;53.154;18.136;2023-04-04T14:55:39;101697.30;;;4.72;39.55
25869;BME280;13688;53.154;18.136;2023-04-04T15:01:02;101694.77;;;4.21;40.47
25869;BME280;13688;53.154;18.136;2023-04-04T15:06:25;101690.95;;;4.03;41.44
25869;BME280;13688;53.154;18.136;2023-04-04T15:11:48;101701.11;;;4.42;43.69
25869;BME280;13688;53.154;18.136;2023-04-04T15:17:11;101685.19;;;4.40;43.85
25869;BME280;13688;53.154;18.136;2023-04-04T15:22:34;101690.31;;;4.21;41.84
25869;BME280;13688;53.154;18.136;2023-04-04T15:27:56;101678.67;;;4.24;41.04
25869;BME280;13688;53.154;18.136;2023-04-04T15:33:18;101686.79;;;5.79;40.15
25869;BME280;13688;53.154;18.136;2023-04-04T15:38:41;101672.48;;;5.59;36.24
25869;BME280;13688;53.154;18.136;2023-04-04T15:44:04;101679.92;;;4.62;39.48
25869;BME280;13688;53.154;18.136;2023-04-04T15:49:27;101695.47;;;4.01;43.31
25869;BME280;13688;53.154;18.136;2023-04-04T15:54:49;101681.60;;;4.88;44.80
25869;BME280;13688;53.154;18.136;2023-04-04T16:00:12;101680.45;;;6.03;41.32
25869;BME280;13688;53.154;18.136;2023-04-04T16:05:45;101665.56;;;5.11;41.39
25869;BME280;13688;53.154;18.136;2023-04-04T16:11:10;101678.41;;;4.31;42.00
25869;BME280;13688;53.154;18.136;2023-04-04T16:16:35;101676.42;;;3.88;43.12
25869;BME280;13688;53.154;18.136;2023-04-04T16:21:57;101679.00;;;4.15;43.17
25869;BME280;13688;53.154;18.136;2023-04-04T16:27:21;101679.39;;;4.04;43.71
25869;BME280;13688;53.154;18.136;2023-04-04T16:32:45;101668.76;;;5.21;43.15
25869;BME280;13688;53.154;18.136;2023-04-04T16:38:08;101684.56;;;5.90;40.67
25869;BME280;13688;53.154;18.136;2023-04-04T16:43:30;101681.02;;;5.03;41.11
25869;BME280;13688;53.154;18.136;2023-04-04T16:48:54;101693.33;;;3.86;42.35
25869;BME280;13688;53.154;18.136;2023-04-04T16:54:17;101683.28;;;3.42;43.67
25869;BME280;13688;53.154;18.136;2023-04-04T16:59:39;101681.59;;;3.40;43.95
25869;BME280;13688;53.154;18.136;2023-04-04T17:05:02;101686.00;;;3.13;44.01
25869;BME280;13688;53.154;18.136;2023-04-04T17:10:25;101696.48;;;2.90;44.56
25869;BME280;13688;53.154;18.136;2023-04-04T17:15:52;101691.73;;;2.70;45.10
25869;BME280;13688;53.154;18.136;2023-04-04T17:21:15;101698.50;;;2.50;45.57
25869;BME280;13688;53.154;18.136;2023-04-04T17:26:37;101707.94;;;2.29;47.73
25869;BME280;13688;53.154;18.136;2023-04-04T17:32:01;101706.64;;;2.13;51.07
25869;BME280;13688;53.154;18.136;2023-04-04T17:37:28;101711.34;;;2.02;53.23
25869;BME280;13688;53.154;18.136;2023-04-04T17:42:51;101708.00;;;1.95;54.26
25869;BME280;13688;53.154;18.136;2023-04-04T17:48:13;101718.66;;;1.92;54.95
25869;BME280;13688;53.154;18.136;2023-04-04T17:53:38;101727.58;;;1.90;55.26
25869;BME280;13688;53.154;18.136;2023-04-04T17:59:01;101733.98;;;1.81;55.39
25869;BME280;13688;53.154;18.136;2023-04-04T18:04:24;101730.96;;;1.61;55.59
25869;BME280;13688;53.154;18.136;2023-04-04T18:09:47;101733.19;;;1.42;56.04
25869;BME280;13688;53.154;18.136;2023-04-04T18:15:10;101735.30;;;1.28;56.60
25869;BME280;13688;53.154;18.136;2023-04-04T18:20:35;101740.77;;;1.20;56.57
25869;BME280;13688;53.154;18.136;2023-04-04T18:25:59;101746.55;;;0.99;57.20
25869;BME280;13688;53.154;18.136;2023-04-04T18:31:21;101754.73;;;0.86;57.87
25869;BME280;13688;53.154;18.136;2023-04-04T18:36:44;101753.86;;;0.86;58.28
25869;BME280;13688;53.154;18.136;2023-04-04T18:42:06;101753.82;;;0.89;58.42
25869;BME280;13688;53.154;18.136;2023-04-04T18:47:30;101753.59;;;1.00;59.00
25869;BME280;13688;53.154;18.136;2023-04-04T18:52:54;101759.83;;;0.97;58.85
25869;BME280;13688;53.154;18.136;2023-04-04T18:58:17;101755.64;;;0.87;58.65
25869;BME280;13688;53.154;18.136;2023-04-04T19:03:47;101755.33;;;0.57;58.79
25869;BME280;13688;53.154;18.136;2023-04-04T19:09:10;101753.28;;;0.27;59.83
25869;BME280;13688;53.154;18.136;2023-04-04T19:14:34;101757.97;;;0.13;60.67
25869;BME280;13688;53.154;18.136;2023-04-04T19:19:56;101761.80;;;-0.05;60.95
25869;BME280;13688;53.154;18.136;2023-04-04T19:25:19;101757.64;;;-0.18;61.31
25869;BME280;13688;53.154;18.136;2023-04-04T19:30:47;101761.33;;;-0.28;61.62
25869;BME280;13688;53.154;18.136;2023-04-04T19:36:12;101759.85;;;-0.46;61.97
25869;BME280;13688;53.154;18.136;2023-04-04T19:41:40;101757.52;;;-0.68;61.94
25869;BME280;13688;53.154;18.136;2023-04-04T19:47:02;101758.59;;;-0.81;62.16
25869;BME280;13688;53.154;18.136;2023-04-04T19:52:27;101766.73;;;-0.98;62.33
25869;BME280;13688;53.154;18.136;2023-04-04T19:57:50;101757.33;;;-1.16;62.66
25869;BME280;13688;53.154;18.136;2023-04-04T20:03:32;101757.44;;;-1.25;63.01
25869;BME280;13688;53.154;18.136;2023-04-04T20:08:56;101753.15;;;-1.33;63.25
25869;BME280;13688;53.154;18.136;2023-04-04T20:14:30;101748.98;;;-1.53;63.51
25869;BME280;13688;53.154;18.136;2023-04-04T20:19:53;101758.04;;;-1.78;64.15
25869;BME280;13688;53.154;18.136;2023-04-04T20:25:37;101750.45;;;-2.10;64.85
25869;BME280;13688;53.154;18.136;2023-04-04T20:30:53;101750.63;;;-2.33;65.63
25869;BME280;13688;53.154;18.136;2023-04-04T20:36:29;101758.66;;;-2.47;66.48
25869;BME280;13688;53.154;18.136;2023-04-04T20:41:51;101759.58;;;-2.54;67.26
25869;BME280;13688;53.154;18.136;2023-04-04T20:53:02;101768.47;;;-2.72;68.37
25869;BME280;13688;53.154;18.136;2023-04-04T20:58:27;101772.93;;;-2.83;68.84
25869;BME280;13688;53.154;18.136;2023-04-04T21:03:50;101761.64;;;-2.99;69.26
25869;BME280;13688;53.154;18.136;2023-04-04T21:09:12;101761.67;;;-3.09;69.79
25869;BME280;13688;53.154;18.136;2023-04-04T21:14:41;101759.10;;;-3.22;70.30
25869;BME280;13688;53.154;18.136;2023-04-04T21:20:05;101760.05;;;-3.39;70.78
25869;BME280;13688;53.154;18.136;2023-04-04T21:25:39;101756.56;;;-3.48;71.41
25869;BME280;13688;53.154;18.136;2023-04-04T21:31:09;101749.59;;;-3.53;72.03
25869;BME280;13688;53.154;18.136;2023-04-04T21:36:33;101754.02;;;-3.64;72.73
25869;BME280;13688;53.154;18.136;2023-04-04T21:41:58;101758.41;;;-3.71;73.41
25869;BME280;13688;53.154;18.136;2023-04-04T21:47:21;101753.99;;;-3.55;74.08
25869;BME280;13688;53.154;18.136;2023-04-04T21:52:43;101752.20;;;-3.46;74.58
25869;BME280;13688;53.154;18.136;2023-04-04T21:58:05;101748.68;;;-3.48;74.84
25869;BME280;13688;53.154;18.136;2023-04-04T22:03:28;101748.74;;;-3.57;75.16
25869;BME280;13688;53.154;18.136;2023-04-04T22:08:52;101746.13;;;-3.63;75.50
25869;BME280;13688;53.154;18.136;2023-04-04T22:14:15;101743.48;;;-3.61;75.78
25869;BME280;13688;53.154;18.136;2023-04-04T22:19:38;101742.63;;;-3.65;75.93
25869;BME280;13688;53.154;18.136;2023-04-04T22:25:12;101740.02;;;-3.79;76.04
25869;BME280;13688;53.154;18.136;2023-04-04T22:30:35;101742.70;;;-3.92;76.07
25869;BME280;13688;53.154;18.136;2023-04-04T22:35:59;101737.41;;;-3.88;76.41
25869;BME280;13688;53.154;18.136;2023-04-04T22:41:28;101736.58;;;-4.00;76.71
25869;BME280;13688;53.154;18.136;2023-04-04T22:46:50;101733.08;;;-4.07;77.25
25869;BME280;13688;53.154;18.136;2023-04-04T22:52:14;101727.82;;;-4.07;77.67
25869;BME280;13688;53.154;18.136;2023-04-04T22:57:39;101724.34;;;-4.11;77.73
25869;BME280;13688;53.154;18.136;2023-04-04T23:03:02;101719.98;;;-4.15;77.65
25869;BME280;13688;53.154;18.136;2023-04-04T23:08:25;101725.25;;;-4.44;77.42
25869;BME280;13688;53.154;18.136;2023-04-04T23:13:47;101722.61;;;-4.56;77.48
25869;BME280;13688;53.154;18.136;2023-04-04T23:19:10;101719.11;;;-4.58;77.78
25869;BME280;13688;53.154;18.136;2023-04-04T23:24:32;101721.73;;;-4.58;78.08
25869;BME280;13688;53.154;18.136;2023-04-04T23:29:54;101714.73;;;-4.48;78.32
25869;BME280;13688;53.154;18.136;2023-04-04T23:35:18;101719.98;;;-4.39;78.40
25869;BME280;13688;53.154;18.136;2023-04-04T23:40:40;101709.48;;;-4.38;78.27
25869;BME280;13688;53.154;18.136;2023-04-04T23:46:03;101697.22;;;-4.36;78.07
25869;BME280;13688;53.154;18.136;2023-04-04T23:51:27;101695.47;;;-4.35;77.95
25869;BME280;13688;53.154;18.136;2023-04-04T23:56:51;101699.85;;;-4.37;78.07
